KJAQ

Westover Field Amador County Airport

Jackson, California, USA
METAR KJAQ 181615Z AUTO 00000KT 10SM CLR 09/M03 A3021 RMK AO1 T00911031
Observed Flight Rules
Dec-18 @ 16:15 UTC (12 minutes ago) Visual Flight Rules
Wind Visibility Clouds
Calm 10 miles
  • Clear skies
Temperatures Readings
Current 9°C / 48°F
Dewpoint -3°C / 27°F
Humidity 43%
Altimeter 30.21" Hg
Pressure 1023 hPa
Elevation 512
METAR KJAQ 181615Z AUTO 00000KT 10SM CLR 09/M03 A3021 RMK AO1 T00911031
Observed Flight Rules
Dec-18 @ 16:15 UTC
(12 minutes ago)
VFR
Wind Visibility
Calm 10 miles
Clouds
  • Clear skies
Temperature Dewpoint
9°C / 48°F -3°C / 27°F
Humidity Altimeter Pressure
43% 30.21" Hg 1023 hPa